Time;durP1;ratioP1;P1;durP2;ratioP2;P2;SDS_P1;SDS_P2;PMS_P1;PMS_P2;Temp;Humidity;BMP_temperature;BMP_pressure;BME280_temperature;BME280_humidity;BME280_pressure;Samples;Min_cycle;Max_cycle;Signal;HPM_P1;HPM_P2
2022/03/03 00:00:41;;;;;;;26.98;15.85;;;;;;;1.18;64.85;100850.53;6245478;23;20020;-90
2022/03/03 00:03:10;;;;;;;27.38;16.25;;;;;;;1.22;65.12;100865.31;6244850;23;20513;-93
2022/03/03 00:05:40;;;;;;;26.48;16.60;;;;;;;1.34;65.49;100888.75;6244986;23;20016;-92
2022/03/03 00:08:09;;;;;;;27.33;16.13;;;;;;;0.97;64.91;100820.97;6241734;23;20031;-91
2022/03/03 00:10:39;;;;;;;26.23;15.73;;;;;;;0.93;65.35;100810.59;6245849;23;20020;-90
2022/03/03 00:13:10;;;;;;;28.65;16.95;;;;;;;1.33;65.28;100884.41;6219031;23;20040;-91
2022/03/03 00:15:37;;;;;;;32.05;16.25;;;;;;;1.08;65.32;100838.38;6246105;23;20407;-90
2022/03/03 00:18:05;;;;;;;29.75;17.25;;;;;;;0.91;65.57;100818.41;6216858;23;20020;-90
2022/03/03 00:20:35;;;;;;;25.70;16.30;;;;;;;1.12;65.33;100867.03;6220401;23;20102;-93
2022/03/03 00:23:03;;;;;;;28.15;16.35;;;;;;;1.06;65.42;100864.44;6245483;23;20103;-91
2022/03/03 00:25:30;;;;;;;26.13;16.48;;;;;;;0.80;65.18;100820.13;6245104;23;20348;-90
2022/03/03 00:28:04;;;;;;;26.60;16.58;;;;;;;0.90;65.50;100845.34;6216635;23;20032;-90
2022/03/03 00:30:32;;;;;;;30.33;17.15;;;;;;;0.83;66.08;100832.28;6243998;23;20012;-91
2022/03/03 00:33:03;;;;;;;27.65;16.08;;;;;;;0.68;65.84;100827.94;6244002;23;20471;-91
2022/03/03 00:35:32;;;;;;;27.80;15.75;;;;;;;0.75;66.17;100836.66;6244699;23;20490;-92
2022/03/03 00:37:59;;;;;;;27.45;15.77;;;;;;;0.89;66.31;100860.97;6243300;23;20423;-94
2022/03/03 00:40:28;;;;;;;27.65;16.20;;;;;;;0.76;66.06;100841.88;6243267;23;20026;-90
2022/03/03 00:42:58;;;;;;;23.80;15.15;;;;;;;0.68;66.14;100841.84;6243971;23;20023;-91
2022/03/03 00:45:28;;;;;;;28.40;15.32;;;;;;;0.66;66.00;100829.69;6244047;23;20044;-91
2022/03/03 00:47:56;;;;;;;28.23;15.63;;;;;;;0.70;65.63;100831.44;6244608;23;20068;-93
2022/03/03 00:50:30;;;;;;;23.83;15.15;;;;;;;0.90;65.64;100860.13;6222701;23;20018;-92
2022/03/03 00:52:58;;;;;;;28.55;15.60;;;;;;;0.57;65.71;100807.13;6244975;23;20351;-90
2022/03/03 00:55:29;;;;;;;26.67;15.45;;;;;;;0.76;65.65;100836.66;6222825;23;20012;-92
2022/03/03 00:57:57;;;;;;;27.95;15.77;;;;;;;0.74;65.33;100833.19;6253363;23;20020;-91
2022/03/03 01:00:44;;;;;;;26.95;15.88;;;;;;;0.52;65.74;100806.22;6254309;23;20077;-91
2022/03/03 01:03:14;;;;;;;26.40;15.10;;;;;;;0.75;65.63;100842.75;6245118;23;20016;-91
2022/03/03 01:05:41;;;;;;;25.90;16.08;;;;;;;0.54;65.74;100807.09;6243628;23;20016;-92
2022/03/03 01:08:15;;;;;;;26.13;15.98;;;;;;;0.76;65.58;100833.19;6246387;23;20355;-91
2022/03/03 01:10:48;;;;;;;24.83;15.13;;;;;;;0.56;65.59;100796.69;6245871;23;20051;-90
2022/03/03 01:13:20;;;;;;;25.83;15.40;;;;;;;0.65;65.55;100841.84;6219583;23;20091;-89
2022/03/03 01:16:03;;;;;;;24.70;15.40;;;;;;;0.64;66.42;100855.75;6244224;23;20098;-92
2022/03/03 01:18:32;;;;;;;29.92;16.05;;;;;;;0.35;66.32;100811.44;6243667;23;20080;-90
2022/03/03 01:20:59;;;;;;;27.20;14.95;;;;;;;0.31;66.53;100819.25;6244774;23;20123;-91
2022/03/03 01:23:31;;;;;;;26.17;16.00;;;;;;;0.14;67.19;100794.94;6221664;23;20032;-93
2022/03/03 01:26:01;;;;;;;25.13;15.07;;;;;;;0.40;67.86;100844.44;6248181;23;20070;-95
2022/03/03 01:28:33;;;;;;;26.45;15.38;;;;;;;0.14;67.78;100805.34;6248830;23;20033;-89
2022/03/03 01:31:03;;;;;;;28.08;16.73;;;;;;;0.33;68.40;100833.13;6203473;23;20364;-92
2022/03/03 01:33:34;;;;;;;25.65;15.98;;;;;;;0.03;68.02;100786.19;6265797;23;20054;-92
2022/03/03 01:36:01;;;;;;;26.95;15.63;;;;;;;-0.02;68.41;100773.19;6266997;22;20032;-92
2022/03/03 01:38:31;;;;;;;24.75;15.77;;;;;;;-0.06;68.48;100766.25;6256767;23;20020;-93
2022/03/03 01:40:58;;;;;;;25.95;15.48;;;;;;;0.24;68.49;100810.56;6253733;23;20020;-93
2022/03/03 01:43:25;;;;;;;27.75;15.85;;;;;;;0.23;68.56;100810.56;6261788;23;20016;-93
2022/03/03 01:45:56;;;;;;;29.45;15.88;;;;;;;-0.03;68.33;100769.72;6252508;23;20102;-92
2022/03/03 01:48:23;;;;;;;26.02;15.82;;;;;;;-0.01;68.54;100769.72;6245809;23;20016;-93
2022/03/03 01:50:52;;;;;;;24.15;14.68;;;;;;;0.17;68.35;100787.97;6249621;23;20027;-91
2022/03/03 01:53:28;;;;;;;27.50;15.98;;;;;;;0.03;68.18;100761.03;6255864;23;20026;-92
2022/03/03 01:55:58;;;;;;;27.63;17.02;;;;;;;0.15;68.90;100792.31;6248357;23;20012;-93
2022/03/03 01:58:25;;;;;;;25.25;15.65;;;;;;;-0.15;68.88;100738.44;6245899;23;20016;-92
2022/03/03 02:00:56;;;;;;;29.60;15.80;;;;;;;0.02;69.19;100766.25;6245830;23;20020;-93
2022/03/03 02:03:34;;;;;;;28.90;15.98;;;;;;;-0.09;69.34;100750.59;6245742;23;20019;-92
2022/03/03 02:06:03;;;;;;;28.73;16.42;;;;;;;0.21;69.39;100818.34;6245308;23;20016;-93
2022/03/03 02:08:33;;;;;;;30.00;15.65;;;;;;;0.04;68.69;100775.78;6242340;23;20499;-91
2022/03/03 02:11:02;;;;;;;28.30;16.67;;;;;;;0.05;69.21;100774.06;6217362;23;20031;-92
2022/03/03 02:13:39;;;;;;;24.95;14.93;;;;;;;-0.19;69.33;100739.31;6246037;23;20020;-91
2022/03/03 02:16:09;;;;;;;26.33;15.00;;;;;;;0.04;68.73;100775.78;6218593;23;20016;-90
2022/03/03 02:18:45;;;;;;;25.08;15.18;;;;;;;0.04;68.76;100781.00;6243739;23;20364;-90
2022/03/03 02:21:16;;;;;;;29.00;15.85;;;;;;;0.00;68.87;100787.09;6245070;23;20071;-91
2022/03/03 02:23:44;;;;;;;26.15;15.15;;;;;;;0.08;68.95;100800.97;6220313;23;20050;-92
2022/03/03 02:26:19;;;;;;;24.10;15.85;;;;;;;-0.25;69.46;100754.03;6247037;23;20024;-91
2022/03/03 02:28:51;;;;;;;24.65;14.80;;;;;;;-0.12;69.71;100768.81;6245964;23;20056;-91
2022/03/03 02:31:21;;;;;;;27.67;16.70;;;;;;;-0.32;70.00;100740.16;6247486;23;20016;-92
2022/03/03 02:33:49;;;;;;;25.20;15.55;;;;;;;-0.13;70.16;100774.88;6246485;23;20023;-91
2022/03/03 02:36:27;;;;;;;27.35;16.00;;;;;;;-0.34;70.05;100741.03;6252408;23;20080;-89
2022/03/03 02:39:02;;;;;;;25.73;15.27;;;;;;;-0.26;70.56;100750.56;6247249;23;20012;-92
2022/03/03 02:41:39;;;;;;;;;;;;;;;;;;;;;
2022/03/03 02:44:15;;;;;;;26.55;15.82;;;;;;;-0.42;70.64;100725.38;6245291;23;20016;-91
2022/03/03 02:46:56;;;;;;;26.65;15.77;;;;;;;-0.09;70.88;100784.44;6251101;23;20085;-91
2022/03/03 02:49:26;;;;;;;22.50;14.45;;;;;;;-0.46;71.09;100727.09;6247846;23;20095;-90
2022/03/03 02:51:53;;;;;;;29.30;16.70;;;;;;;-0.42;71.19;100731.44;6224187;23;20407;-91
2022/03/03 02:54:29;;;;;;;24.75;15.88;;;;;;;-0.28;70.74;100748.81;6248686;23;20020;-92
2022/03/03 02:59:56;;;;;;;26.20;15.07;;;;;;;-0.34;71.12;100730.63;6244376;23;20459;-92
2022/03/03 03:02:23;;;;;;;25.95;14.40;;;;;;;-0.44;70.61;100714.09;6219752;23;20027;-92
2022/03/03 03:04:54;;;;;;;24.92;14.50;;;;;;;-0.22;70.84;100738.44;6245207;23;20047;-91
2022/03/03 03:07:32;;;;;;;;;;;;;;;;;;;;;
2022/03/03 03:10:02;;;;;;;25.80;14.23;;;;;;;-0.39;70.25;100708.03;6243712;23;20099;-93
2022/03/03 03:12:36;;;;;;;25.55;15.20;;;;;;;-0.36;69.95;100702.84;6246164;23;20063;-93
2022/03/03 03:15:19;;;;;;;24.27;14.18;;;;;;;-0.17;69.49;100721.09;6246415;23;20091;-93
2022/03/03 03:17:49;;;;;;;24.40;14.10;;;;;;;-0.37;69.48;100690.72;6245930;23;20023;-92
2022/03/03 03:20:38;;;;;;;25.33;14.57;;;;;;;-0.44;69.35;100696.75;6244628;23;20013;-93
2022/03/03 03:23:07;;;;;;;26.70;14.55;;;;;;;-0.37;69.62;100719.31;6219437;23;20036;-92
2022/03/03 03:25:48;;;;;;;25.77;14.70;;;;;;;-0.39;69.76;100723.66;6247130;23;20023;-93
2022/03/03 03:28:18;;;;;;;22.98;13.88;;;;;;;-0.33;70.14;100740.16;6247038;23;20046;-94
2022/03/03 03:30:57;;;;;;;24.77;15.57;;;;;;;-0.60;69.73;100704.50;6246134;23;20016;-92
2022/03/03 03:33:38;;;;;;;25.33;14.75;;;;;;;-0.59;70.56;100720.13;6246820;23;20073;-91
2022/03/03 03:36:09;;;;;;;26.17;15.15;;;;;;;-0.70;71.08;100701.00;6247302;23;20492;-93
2022/03/03 03:38:36;;;;;;;24.45;15.38;;;;;;;-0.74;71.35;100701.84;6244001;23;20070;-96
2022/03/03 03:41:09;;;;;;;24.58;15.10;;;;;;;-0.41;71.85;100764.41;6245853;23;20341;-92
2022/03/03 03:43:53;;;;;;;25.42;15.32;;;;;;;-0.77;71.40;100717.44;6245343;23;20099;-92
2022/03/03 03:46:23;;;;;;;28.38;15.68;;;;;;;-0.57;72.03;100752.19;6249788;23;20032;-91
2022/03/03 03:48:54;;;;;;;25.02;15.95;;;;;;;-0.88;72.84;100709.59;6254821;23;20044;-93
2022/03/03 03:51:22;;;;;;;24.95;15.48;;;;;;;-0.77;72.60;100740.84;6252849;23;20416;-93
2022/03/03 03:53:53;;;;;;;26.30;15.70;;;;;;;-0.98;72.61;100706.97;6244920;23;20016;-92
2022/03/03 03:56:23;;;;;;;;;;;;;;;-0.59;72.32;100763.47;6244924;23;20020;-93
2022/03/03 03:58:54;;;;;;;25.13;14.93;;;;;;;-0.80;72.17;100727.84;6241693;23;19950;-92
2022/03/03 04:01:31;;;;;;;24.35;14.65;;;;;;;-0.98;72.91;100696.56;6251367;23;20529;-93
2022/03/03 04:04:04;;;;;;;26.02;15.27;;;;;;;-0.87;72.83;100723.47;6230736;23;20078;-92
2022/03/03 04:06:36;;;;;;;26.52;14.65;;;;;;;-0.93;73.01;100716.50;6254560;23;20020;-93
2022/03/03 04:09:15;;;;;;;25.92;15.35;;;;;;;-0.87;72.67;100723.47;6256324;23;20054;-92
2022/03/03 04:11:56;;;;;;;24.85;15.35;;;;;;;-0.75;72.54;100742.59;6254689;23;20315;-92
2022/03/03 04:14:23;;;;;;;24.85;14.63;;;;;;;-0.95;72.84;100701.78;6248486;23;20328;-91
2022/03/03 04:16:55;;;;;;;25.00;15.38;;;;;;;-0.73;72.47;100742.59;6255570;23;20027;-92
2022/03/03 04:19:27;;;;;;;23.80;14.52;;;;;;;-1.06;72.11;100671.41;6254923;23;20421;-92
2022/03/03 04:21:54;;;;;;;24.13;14.80;;;;;;;-0.86;72.05;100697.50;6250522;23;20402;-91
2022/03/03 04:24:23;;;;;;;26.48;14.55;;;;;;;-0.89;72.07;100705.25;6244653;23;20579;-91
2022/03/03 04:27:00;;;;;;;;;;;;;;;;;;;;;
2022/03/03 04:29:31;;;;;;;22.50;14.32;;;;;;;-0.86;71.93;100692.28;6241277;23;20050;-92
2022/03/03 04:32:01;;;;;;;27.50;14.48;;;;;;;-1.06;71.67;100652.34;6245253;23;20038;-92
2022/03/03 04:34:31;;;;;;;24.00;14.38;;;;;;;-1.06;71.80;100640.22;6244347;23;20023;-92
2022/03/03 04:37:01;;;;;;;24.58;15.18;;;;;;;-0.83;71.59;100681.91;6245677;23;20046;-92
2022/03/03 04:39:29;;;;;;;26.92;15.55;;;;;;;-0.88;71.89;100678.41;6244616;23;20340;-95
2022/03/03 04:41:55;;;;;;;25.42;14.82;;;;;;;-1.03;71.83;100638.50;6195089;23;20390;-95
2022/03/03 04:44:28;;;;;;;24.27;15.27;;;;;;;-0.92;72.05;100663.66;6245265;23;20016;-93
2022/03/03 04:46:58;;;;;;;24.35;15.23;;;;;;;-1.15;72.61;100628.94;6246005;23;20043;-95
2022/03/03 04:49:29;;;;;;;27.98;15.40;;;;;;;-1.10;73.49;100645.38;6253607;23;20059;-95
2022/03/03 04:52:03;;;;;;;25.52;15.27;;;;;;;-1.01;73.56;100678.34;6245746;23;20016;-95
2022/03/03 04:54:34;;;;;;;27.30;15.48;;;;;;;-1.01;74.49;100697.41;6245783;23;20023;-92
2022/03/03 04:57:03;;;;;;;27.45;16.50;;;;;;;-1.26;74.97;100660.03;6246402;23;20012;-92
2022/03/03 04:59:31;;;;;;;29.33;15.77;;;;;;;-1.30;75.20;100684.28;6244989;23;20086;-93
2022/03/03 05:02:06;;;;;;;29.75;17.02;;;;;;;-1.49;75.87;100672.03;6220768;23;20313;-91
2022/03/03 05:04:36;;;;;;;31.58;17.20;;;;;;;-1.35;76.20;100709.34;6247155;23;20055;-92
2022/03/03 05:07:05;;;;;;;29.30;17.48;;;;;;;-1.37;77.68;100716.25;6247523;23;20016;-92
2022/03/03 05:09:39;;;;;;;28.48;16.67;;;;;;;-1.64;77.71;100667.63;6245901;23;20028;-92
2022/03/03 05:12:07;;;;;;;30.73;17.02;;;;;;;-1.78;78.28;100638.09;6246257;23;20020;-93
2022/03/03 05:14:35;;;;;;;30.38;16.90;;;;;;;-1.58;78.25;100674.59;6219417;23;20020;-91
2022/03/03 05:17:07;;;;;;;27.90;16.55;;;;;;;-1.57;78.61;100669.38;6244955;23;20035;-90
2022/03/03 05:19:37;;;;;;;28.40;16.92;;;;;;;-1.40;78.09;100687.66;6244309;23;20016;-92
2022/03/03 05:22:05;;;;;;;28.98;17.42;;;;;;;-1.63;78.13;100652.91;6244634;23;20027;-91
2022/03/03 05:24:34;;;;;;;27.05;16.25;;;;;;;-1.64;77.38;100651.16;6246036;23;20012;-90
2022/03/03 05:27:01;;;;;;;28.30;16.65;;;;;;;-1.52;77.79;100666.81;6218387;23;20027;-92
2022/03/03 05:29:35;;;;;;;30.25;16.92;;;;;;;-1.51;77.99;100660.78;6241727;23;20020;-91
2022/03/03 05:32:03;;;;;;;30.92;16.30;;;;;;;-1.46;77.92;100677.25;6216428;23;20036;-90
2022/03/03 05:34:32;;;;;;;27.13;16.42;;;;;;;-1.50;77.65;100659.91;6241999;23;20012;-92
2022/03/03 05:37:04;;;;;;;27.67;16.27;;;;;;;-1.72;77.92;100632.06;6245162;23;20020;-91
2022/03/03 05:39:42;;;;;;;26.25;16.05;;;;;;;-1.71;77.87;100644.19;6245213;23;20020;-93
2022/03/03 05:42:11;;;;;;;25.17;15.63;;;;;;;-1.51;77.62;100673.75;6247938;23;20026;-91
2022/03/03 05:44:44;;;;;;;28.52;15.88;;;;;;;-1.43;77.55;100680.75;6220219;23;20095;-91
2022/03/03 05:47:12;;;;;;;;;;;;;;;-1.26;77.81;100706.78;6218920;23;20060;-92
2022/03/03 05:49:43;;;;;;;24.45;15.43;;;;;;;-1.46;77.30;100670.34;6250280;23;19919;-93
2022/03/03 05:52:13;;;;;;;25.02;15.38;;;;;;;-1.30;77.44;100696.41;6246551;23;20104;-93
2022/03/03 05:54:43;;;;;;;27.80;16.17;;;;;;;-1.60;77.44;100640.81;6244570;23;20012;-94
2022/03/03 05:57:25;;;;;;;28.02;15.85;;;;;;;-1.44;77.32;100660.81;6247278;23;20103;-92
2022/03/03 05:59:57;;;;;;;30.40;17.35;;;;;;;-1.39;77.27;100668.63;6246918;23;20095;-91
2022/03/03 06:02:26;;;;;;;24.40;15.40;;;;;;;-1.15;77.54;100696.50;6252736;23;20326;-92
2022/03/03 06:05:13;;;;;;;26.15;16.73;;;;;;;-1.11;76.60;100706.91;6243800;23;20111;-90
2022/03/03 06:07:49;;;;;;;27.63;17.13;;;;;;;-1.21;76.61;100675.66;6252092;23;20043;-91
2022/03/03 06:10:26;;;;;;;26.25;15.88;;;;;;;-1.16;75.35;100667.03;6258610;23;20043;-96
2022/03/03 06:13:23;;;;;;;27.08;16.10;;;;;;;-1.15;75.24;100678.28;6264478;23;20036;-94
2022/03/03 06:15:58;;;;;;;28.13;16.15;;;;;;;-1.29;75.38;100652.25;6267787;22;20004;-95
2022/03/03 06:18:28;;;;;;;26.88;16.52;;;;;;;-1.16;74.79;100660.97;6265837;22;20043;-92
2022/03/03 06:20:58;;;;;;;32.65;17.10;;;;;;;-0.88;74.66;100700.94;6229754;23;20016;-91
2022/03/03 06:23:43;;;;;;;29.42;17.27;;;;;;;-1.18;74.90;100641.91;6238788;22;20058;-89
2022/03/03 06:26:18;;;;;;;27.23;15.95;;;;;;;-0.93;74.89;100671.44;6240116;23;20012;-93
2022/03/03 06:29:00;;;;;;;27.65;17.02;;;;;;;-0.92;75.02;100676.66;6255096;23;20471;-93
2022/03/03 06:31:42;;;;;;;26.00;16.25;;;;;;;-0.70;73.68;100708.81;6220291;23;20024;-92
2022/03/03 06:34:20;;;;;;;26.13;15.57;;;;;;;-0.90;72.79;100648.94;6223859;23;20024;-91
2022/03/03 06:37:06;;;;;;;25.95;15.45;;;;;;;-0.55;72.61;100700.19;6247515;23;20584;-92
2022/03/03 06:39:33;;;;;;;28.10;15.77;;;;;;;-0.42;72.40;100715.84;6220480;23;20016;-93
2022/03/03 06:42:00;;;;;;;24.73;15.07;;;;;;;-0.43;71.72;100701.09;6244168;23;20076;-92
2022/03/03 06:44:28;;;;;;;25.65;16.40;;;;;;;-0.24;71.35;100724.56;6248471;23;20086;-91
2022/03/03 06:46:57;;;;;;;;;;;;;;;-0.15;71.39;100724.56;6223375;23;20043;-92
2022/03/03 06:49:24;;;;;;;24.40;15.15;;;;;;;-0.21;71.00;100696.81;6246834;23;20335;-92
2022/03/03 06:51:55;;;;;;;26.40;16.60;;;;;;;-0.36;70.87;100658.63;6244665;23;20090;-91
2022/03/03 06:55:05;;;;;;;25.92;15.98;;;;;;;0.11;69.88;100712.47;6218297;23;20020;-93
2022/03/03 06:57:36;;;;;;;24.58;15.15;;;;;;;-0.11;70.28;100664.69;6219918;23;20249;-91
2022/03/03 07:00:05;;;;;;;26.55;16.13;;;;;;;0.05;69.87;100673.38;6247037;23;20891;-93
2022/03/03 07:02:47;;;;;;;23.55;15.63;;;;;;;-0.04;68.98;100645.63;6257414;23;20024;-95
2022/03/03 07:05:15;;;;;;;27.70;16.08;;;;;;;0.05;69.12;100639.53;6248169;23;20016;-92
2022/03/03 07:07:45;;;;;;;26.90;16.13;;;;;;;0.44;68.96;100693.34;6250521;23;20054;-93
2022/03/03 07:10:13;;;;;;;;;;;;;;;0.58;68.56;100703.75;6247200;23;20070;-94
2022/03/03 07:12:43;;;;;;;26.45;16.08;;;;;;;0.38;68.11;100659.47;6219779;23;19923;-94
2022/03/03 07:15:11;;;;;;;26.43;15.97;;;;;;;0.61;67.73;100690.72;6251140;23;20024;-94
2022/03/03 07:17:58;;;;;;;27.30;15.88;;;;;;;0.71;67.58;100710.66;6253134;23;20448;-94
2022/03/03 07:20:43;;;;;;;23.42;15.40;;;;;;;0.72;67.68;100704.59;6242209;23;20028;-94
2022/03/03 07:23:37;;;;;;;25.15;15.23;;;;;;;0.39;67.27;100645.59;6252139;23;20024;-93
2022/03/03 07:26:08;;;;;;;25.55;14.70;;;;;;;0.58;66.86;100669.88;6250921;23;20020;-93
2022/03/03 07:28:40;;;;;;;24.60;15.02;;;;;;;0.70;66.89;100681.13;6252641;23;20096;-92
2022/03/03 07:31:09;;;;;;;24.33;15.48;;;;;;;0.77;66.35;100679.38;6252488;23;20017;-92
2022/03/03 07:33:57;;;;;;;26.75;15.40;;;;;;;0.83;66.10;100673.28;6251410;23;20018;-94
2022/03/03 07:36:31;;;;;;;26.77;15.55;;;;;;;0.72;65.52;100644.63;6250645;23;20027;-93
2022/03/03 07:39:06;;;;;;;24.75;15.85;;;;;;;0.99;65.06;100665.41;6226215;23;20016;-94
2022/03/03 07:41:33;;;;;;;25.67;15.25;;;;;;;1.20;64.25;100674.88;6250709;23;20020;-92
2022/03/03 07:44:03;;;;;;;27.07;15.43;;;;;;;1.15;63.83;100653.16;6249320;23;20400;-92
2022/03/03 07:46:30;;;;;;;23.13;15.02;;;;;;;1.42;63.91;100690.44;6248627;23;20443;-93
2022/03/03 07:49:00;;;;;;;25.05;15.07;;;;;;;1.37;63.42;100660.00;6248176;23;20074;-93
2022/03/03 07:51:27;;;;;;;26.30;14.88;;;;;;;1.65;62.99;100684.19;6249090;23;20019;-93
2022/03/03 07:53:55;;;;;;;24.38;14.88;;;;;;;1.60;62.28;100657.25;6250188;23;20022;-93
2022/03/03 07:56:28;;;;;;;23.15;15.27;;;;;;;1.92;63.84;100697.94;6250906;23;20073;-93
2022/03/03 07:59:34;;;;;;;24.48;14.48;;;;;;;1.96;61.74;100655.25;6247396;23;20103;-92
2022/03/03 08:02:05;;;;;;;22.73;14.23;;;;;;;2.19;60.13;100666.41;6241856;23;20020;-93
2022/03/03 08:04:33;;;;;;;22.75;14.48;;;;;;;2.06;58.48;100642.09;6247411;23;20092;-92
2022/03/03 08:07:14;;;;;;;24.63;13.73;;;;;;;2.15;56.73;100637.69;6252581;23;20020;-95
2022/03/03 08:09:59;;;;;;;21.70;14.63;;;;;;;2.53;57.28;100700.91;6230416;23;20030;-92
2022/03/03 08:12:34;;;;;;;22.42;13.55;;;;;;;2.30;57.03;100659.31;6247701;23;20013;-94
2022/03/03 08:15:01;;;;;;;20.45;13.68;;;;;;;2.50;55.92;100677.44;6245835;23;20024;-91
2022/03/03 08:17:34;;;;;;;23.42;14.25;;;;;;;2.57;55.70;100688.69;6248203;23;20016;-92
2022/03/03 08:20:15;;;;;;;24.23;14.90;;;;;;;2.58;55.68;100679.97;6243749;23;20031;-91
2022/03/03 08:22:42;;;;;;;22.52;14.07;;;;;;;2.67;55.80;100703.44;6246813;23;20035;-91
2022/03/03 08:25:11;;;;;;;23.73;14.50;;;;;;;2.73;57.05;100682.44;6247776;23;20020;-90
2022/03/03 08:27:40;;;;;;;23.45;13.88;;;;;;;2.87;56.81;100693.59;6245538;23;20012;-90
2022/03/03 08:30:12;;;;;;;21.23;13.80;;;;;;;2.94;55.68;100684.81;6246703;23;20091;-91
2022/03/03 08:32:48;;;;;;;22.50;13.77;;;;;;;3.22;54.99;100732.47;6244377;23;20012;-92
2022/03/03 08:35:21;;;;;;;21.70;13.50;;;;;;;3.04;55.44;100694.28;6245849;23;20016;-91
2022/03/03 08:38:02;;;;;;;22.05;15.23;;;;;;;3.42;54.61;100729.59;6245321;23;20020;-91
2022/03/03 08:40:30;;;;;;;26.40;13.43;;;;;;;3.49;53.54;100733.88;6249541;23;20296;-93
2022/03/03 08:43:02;;;;;;;20.02;13.38;;;;;;;3.48;54.42;100708.56;6245439;23;20072;-93
2022/03/03 08:45:33;;;;;;;22.15;14.15;;;;;;;3.81;53.21;100713.34;6246870;23;20024;-93
2022/03/03 08:48:07;;;;;;;23.55;13.52;;;;;;;4.25;52.21;100721.44;6241504;23;20080;-93
2022/03/03 08:50:37;;;;;;;20.20;13.23;;;;;;;4.81;50.53;100709.97;6241149;23;20027;-92
2022/03/03 08:53:24;;;;;;;20.10;13.45;;;;;;;5.17;49.88;100718.91;6157268;23;20021;-95
2022/03/03 08:55:53;;;;;;;20.95;13.40;;;;;;;5.51;48.57;100690.19;6166107;23;20029;-94
2022/03/03 08:58:38;;;;;;;20.45;13.07;;;;;;;5.99;46.52;100654.91;6148735;23;20112;-93
2022/03/03 09:01:05;;;;;;;17.80;12.65;;;;;;;6.74;45.49;100694.28;6125253;23;20021;-92
2022/03/03 09:03:33;;;;;;;18.67;13.82;;;;;;;7.06;42.80;100675.84;6153669;23;20121;-93
2022/03/03 09:06:01;;;;;;;19.92;13.02;;;;;;;7.50;43.80;100713.19;6153111;23;20025;-93
2022/03/03 09:08:44;;;;;;;19.80;13.23;;;;;;;7.64;41.84;100660.94;6154823;23;20025;-94
2022/03/03 09:11:12;;;;;;;16.23;12.68;;;;;;;8.00;41.29;100688.81;6176615;23;20044;-93
2022/03/03 09:13:42;;;;;;;19.63;12.85;;;;;;;8.08;40.15;100668.31;6216637;23;20016;-93
2022/03/03 09:16:16;;;;;;;18.63;12.80;;;;;;;8.03;40.38;100679.91;6215793;23;20051;-93
2022/03/03 09:18:46;;;;;;;19.65;13.90;;;;;;;7.94;40.30;100654.69;6216386;23;20020;-94
2022/03/03 09:21:14;;;;;;;19.37;12.47;;;;;;;8.31;39.95;100674.63;6214963;23;20071;-93
2022/03/03 09:23:47;;;;;;;19.48;13.05;;;;;;;8.73;39.01;100689.03;6216177;23;20051;-93
2022/03/03 09:29:05;;;;;;;19.35;13.40;;;;;;;8.76;38.55;100662.50;6215948;23;20483;-92
2022/03/03 09:31:58;;;;;;;19.45;12.80;;;;;;;8.44;39.91;100653.06;6215739;23;20028;-94
2022/03/03 09:34:25;;;;;;;19.40;13.43;;;;;;;8.28;40.88;100643.91;6219163;23;20016;-92
2022/03/03 09:36:52;;;;;;;18.75;13.10;;;;;;;8.22;40.04;100646.75;6219272;23;20036;-93
2022/03/03 09:39:36;;;;;;;17.17;13.40;;;;;;;8.21;40.24;100633.59;6218150;23;20024;-91
2022/03/03 09:42:03;;;;;;;17.92;13.13;;;;;;;8.51;39.45;100624.66;6190354;23;20024;-91
2022/03/03 09:44:33;;;;;;;22.20;13.73;;;;;;;8.60;38.55;100586.53;6219008;23;20432;-91
2022/03/03 09:47:00;;;;;;;20.27;13.95;;;;;;;8.81;38.52;100633.31;6191370;23;20017;-92
2022/03/03 09:49:27;;;;;;;21.17;13.60;;;;;;;9.14;38.74;100653.19;6190763;23;20020;-92
2022/03/03 09:51:55;;;;;;;17.90;13.90;;;;;;;9.46;37.61;100591.19;6216132;23;20086;-91
2022/03/03 09:54:35;;;;;;;19.38;13.27;;;;;;;10.36;36.45;100616.63;6217583;23;20016;-92
2022/03/03 09:57:04;;;;;;;17.60;13.18;;;;;;;10.97;35.09;100586.59;6217339;23;20017;-92
2022/03/03 09:59:31;;;;;;;17.67;12.90;;;;;;;11.70;34.24;100630.88;6217592;23;20021;-93
2022/03/03 10:02:06;;;;;;;18.45;13.40;;;;;;;11.86;32.42;100606.22;6216005;23;20028;-92
2022/03/03 10:04:35;;;;;;;18.80;12.95;;;;;;;12.01;32.71;100604.59;6223989;23;20190;-92
2022/03/03 10:07:07;;;;;;;17.48;13.02;;;;;;;12.94;31.16;100611.28;6198674;23;20400;-93
2022/03/03 10:10:18;;;;;;;17.40;12.85;;;;;;;13.55;29.58;100613.28;6226304;23;20074;-94
2022/03/03 10:12:45;;;;;;;16.63;12.98;;;;;;;14.09;28.21;100573.81;6240094;23;20020;-93
2022/03/03 10:15:15;;;;;;;19.33;12.77;;;;;;;14.27;28.29;100610.03;6247577;23;20016;-93
2022/03/03 10:17:43;;;;;;;19.77;14.27;;;;;;;14.32;27.59;100607.94;6248212;23;20013;-93
2022/03/03 10:20:12;;;;;;;16.50;13.43;;;;;;;14.08;27.94;100604.06;6246060;23;20040;-92
2022/03/03 10:22:57;;;;;;;19.50;13.27;;;;;;;13.73;28.18;100573.28;6219704;23;20087;-91
2022/03/03 10:25:32;;;;;;;17.98;14.10;;;;;;;14.40;28.20;100628.84;6243754;23;20028;-94
2022/03/03 10:28:18;;;;;;;18.80;13.68;;;;;;;14.59;28.54;100636.59;6242707;23;20046;-93
2022/03/03 10:31:00;;;;;;;16.60;12.95;;;;;;;15.05;27.58;100581.34;6255516;23;20083;-93
2022/03/03 10:33:32;;;;;;;17.20;13.82;;;;;;;15.58;26.08;100580.63;6246081;23;20020;-93
2022/03/03 10:39:06;;;;;;;17.38;12.57;;;;;;;16.31;25.01;100628.34;6248320;23;20028;-92
2022/03/03 10:41:35;;;;;;;16.15;12.80;;;;;;;16.29;25.45;100619.56;6255887;23;20058;-93
2022/03/03 10:44:31;;;;;;;17.35;12.80;;;;;;;16.60;24.96;100624.56;6150202;23;20029;-93
2022/03/03 10:47:09;;;;;;;18.90;13.57;;;;;;;16.62;24.70;100611.09;6172504;23;20073;-92
2022/03/03 10:50:19;;;;;;;15.98;11.65;;;;;;;16.33;25.04;100584.53;6162020;23;20023;-92
2022/03/03 10:53:09;;;;;;;17.40;13.02;;;;;;;15.93;25.20;100609.50;6154780;23;20013;-91
2022/03/03 10:56:19;;;;;;;16.95;13.35;;;;;;;15.75;25.77;100612.41;6152282;23;20080;-90
2022/03/03 10:59:25;;;;;;;22.00;13.82;;;;;;;16.37;25.20;100615.41;6150626;23;20025;-92
2022/03/03 11:02:10;;;;;;;14.75;12.75;;;;;;;17.07;25.11;100604.38;6169570;23;20027;-93
2022/03/03 11:04:37;;;;;;;15.60;12.27;;;;;;;17.91;23.30;100566.16;6245695;23;20024;-94
2022/03/03 11:07:17;;;;;;;17.10;12.68;;;;;;;18.68;21.57;100541.47;6245642;23;20012;-95
2022/03/03 11:09:45;;;;;;;18.88;12.75;;;;;;;18.53;21.35;100523.84;6261401;23;20051;-93
2022/03/03 11:12:12;;;;;;;27.15;16.83;;;;;;;18.78;21.95;100553.16;6258655;23;20024;-95
2022/03/03 11:14:42;;;;;;;17.65;13.45;;;;;;;19.44;21.12;100566.69;6246087;23;20059;-91
2022/03/03 11:17:20;;;;;;;17.73;13.45;;;;;;;19.72;20.64;100568.00;6246166;23;20093;-92
2022/03/03 11:20:23;;;;;;;14.63;11.90;;;;;;;19.76;20.17;100567.63;6240336;23;20016;-92
2022/03/03 11:27:31;;;;;;;16.40;12.57;;;;;;;19.50;20.69;100582.34;6151953;23;20018;-93
2022/03/03 11:30:34;;;;;;;15.65;12.38;;;;;;;19.23;20.49;100535.22;6142271;23;20060;-91
2022/03/03 11:33:17;;;;;;;17.75;12.43;;;;;;;19.58;20.61;100588.81;6148317;23;20028;-91
2022/03/03 11:36:25;;;;;;;17.60;12.60;;;;;;;18.25;21.50;100551.94;6123200;23;20056;-92
2022/03/03 11:39:06;;;;;;;16.48;12.93;;;;;;;16.46;23.05;100556.00;6152043;23;20029;-90
2022/03/03 11:41:51;;;;;;;16.13;12.55;;;;;;;15.95;23.83;100511.44;6219033;23;20024;-92
2022/03/03 11:44:30;;;;;;;17.08;13.30;;;;;;;15.68;25.32;100578.22;6245072;23;20098;-91
2022/03/03 11:46:59;;;;;;;17.95;13.00;;;;;;;15.33;25.80;100572.44;6245275;23;20042;-91
2022/03/03 11:50:01;;;;;;;16.73;12.40;;;;;;;15.07;25.69;100577.63;6206024;23;20022;-91
2022/03/03 11:52:40;;;;;;;18.20;12.70;;;;;;;14.21;26.46;100514.50;6243885;23;20050;-90
2022/03/03 11:55:29;;;;;;;17.05;12.40;;;;;;;13.70;27.03;100568.97;6238631;23;20024;-92
2022/03/03 11:58:53;;;;;;;17.95;13.40;;;;;;;12.83;28.16;100573.78;6245445;23;20016;-91
2022/03/03 12:01:55;;;;;;;19.35;12.18;;;;;;;12.16;28.52;100576.44;6217156;23;20060;-93